Terminal Aerodrome Forecast
Issued by NWS

Home | Current Version | Previous Version | Text Only | Print | Product List | Glossary On
Versions: 1 2 3 4 5 6 7 8 9 10 11 12 13 14 15
000
FTUS42 KTBW 250006 AAA
TAFRSW
TAF AMD
KRSW 250006Z 2500/2524 29005KT P6SM SCT050
     FM250700 VRB03KT 5SM BR FEW005 SCT030
     FM250900 VRB03KT 1SM BR SCT005 BKN015
     FM251400 24006KT P6SM SCT020
     FM251700 27008KT P6SM SCT035=

USA.gov is the U.S. government's official web portal to all federal, state and local government web resources and services.